This is the latest recevied weather packets stored in our database for station/object KI4HRG. If no packets are shown the sender has not sent any weather packets the latest 10 day(s).
| Time | Temp. | Humidity | Pressure | Rain* | Wind** | Luminosity | Snow |
|---|---|---|---|---|---|---|---|
| 1777487916 | 25.56° C | 83% | 1012.9 hPa | 0 mm | - | 718 W/m² | - |
| 1777487613 | 25.56° C | 84% | 1013 hPa | 0 mm | - | 271 W/m² | - |
| 1777487305 | 25° C | 86% | 1013.3 hPa | 0 mm | - | 360 W/m² | - |
| 1777487002 | 25.56° C | 84% | 1013 hPa | 0 mm | - | 273 W/m² | - |
| 1777486698 | 25° C | 85% | 1013 hPa | 0 mm | - | 473 W/m² | - |
| 1777486396 | 25° C | 86% | 1013 hPa | 0 mm | - | 228 W/m² | - |
| 1777486093 | 25° C | 85% | 1013.3 hPa | 0 mm | - | 367 W/m² | - |
| 1777485790 | 25° C | 86% | 1013.4 hPa | 0 mm | - | 363 W/m² | - |
| 1777485486 | 25° C | 85% | 1013.6 hPa | 0 mm | - | 236 W/m² | - |
| 1777485182 | 24.44° C | 86% | 1013.5 hPa | 0 mm | - | 700 W/m² | - |
| 1777484878 | 23.89° C | 88% | 1013.6 hPa | 0 mm | - | 568 W/m² | - |
| 1777484576 | 23.89° C | 90% | 1013.6 hPa | 0 mm | - | 331 W/m² | - |
| 1777484272 | 23.89° C | 89% | 1013.6 hPa | 0 mm | - | 173 W/m² | - |
| 1777483968 | 23.89° C | 89% | 1013.5 hPa | 0 mm | - | 120 W/m² | - |
| 1777483665 | 23.89° C | 89% | 1013.6 hPa | 0 mm | - | 131 W/m² | - |
| 1777483360 | 23.89° C | 89% | 1013.6 hPa | 0 mm | - | 170 W/m² | - |
| 1777483055 | 23.89° C | 89% | 1013.7 hPa | 0 mm | - | 136 W/m² | - |
| 1777482753 | 23.89° C | 88% | 1013.9 hPa | 0 mm | - | 112 W/m² | - |
| 1777482449 | 24.44° C | 88% | 1013.6 hPa | 0 mm | - | 201 W/m² | - |
| 1777482146 | 24.44° C | 87% | 1013.9 hPa | 0 mm | - | 367 W/m² | - |
| 1777481844 | 24.44° C | 87% | 1013.8 hPa | 0 mm | - | 419 W/m² | - |
| 1777481541 | 23.89° C | 90% | 1013.9 hPa | 0 mm | - | 417 W/m² | - |
| 1777481238 | 23.33° C | 90% | 1014 hPa | 0 mm | - | 298 W/m² | - |
| 1777480935 | 23.89° C | 91% | 1013.8 hPa | 0 mm | - | 132 W/m² | - |
| 1777480631 | 23.89° C | 91% | 1014.1 hPa | 0 mm | - | 153 W/m² | - |
* Rain latest hour (hover to see other rain measurements)
** Current wind speed in m/s (hover to see current wind gust speed)